sensor_id;sensor_type;location;lat;lon;timestamp;pressure;altitude;pressure_sealevel;temperature;humidity
54389;BME280;40975;50.390;8.640;2024-02-23T00:00:30;96592.19;;;6.69;84.11
54389;BME280;40975;50.390;8.640;2024-02-23T00:02:55;96597.31;;;6.71;81.61
54389;BME280;40975;50.390;8.640;2024-02-23T00:05:23;96589.75;;;6.68;82.25
54389;BME280;40975;50.390;8.640;2024-02-23T00:07:48;96581.84;;;6.68;82.31
54389;BME280;40975;50.390;8.640;2024-02-23T00:10:13;96595.78;;;6.62;83.16
54389;BME280;40975;50.390;8.640;2024-02-23T00:12:39;96620.28;;;6.62;84.71
54389;BME280;40975;50.390;8.640;2024-02-23T00:15:04;96624.38;;;6.65;84.22
54389;BME280;40975;50.390;8.640;2024-02-23T00:17:30;96619.75;;;6.67;82.15
54389;BME280;40975;50.390;8.640;2024-02-23T00:19:55;96633.28;;;6.64;84.58
54389;BME280;40975;50.390;8.640;2024-02-23T00:22:20;96644.22;;;6.61;85.54
54389;BME280;40975;50.390;8.640;2024-02-23T00:24:46;96654.09;;;6.59;85.79
54389;BME280;40975;50.390;8.640;2024-02-23T00:27:11;96655.09;;;6.58;85.83
54389;BME280;40975;50.390;8.640;2024-02-23T00:29:37;96655.47;;;6.54;84.43
54389;BME280;40975;50.390;8.640;2024-02-23T00:32:03;96648.94;;;6.50;85.12
54389;BME280;40975;50.390;8.640;2024-02-23T00:34:28;96674.53;;;6.42;85.95
54389;BME280;40975;50.390;8.640;2024-02-23T00:36:55;96673.72;;;6.41;85.15
54389;BME280;40975;50.390;8.640;2024-02-23T00:39:21;96689.25;;;6.36;85.94
54389;BME280;40975;50.390;8.640;2024-02-23T00:41:46;96694.91;;;6.33;86.10
54389;BME280;40975;50.390;8.640;2024-02-23T00:44:12;96701.03;;;6.25;86.29
54389;BME280;40975;50.390;8.640;2024-02-23T00:46:37;96714.22;;;6.25;87.08
54389;BME280;40975;50.390;8.640;2024-02-23T00:49:02;96707.97;;;6.26;85.63
54389;BME280;40975;50.390;8.640;2024-02-23T00:51:28;96720.81;;;6.21;85.81
54389;BME280;40975;50.390;8.640;2024-02-23T00:53:53;96706.38;;;6.17;83.70
54389;BME280;40975;50.390;8.640;2024-02-23T00:56:18;96718.78;;;6.08;84.02
54389;BME280;40975;50.390;8.640;2024-02-23T00:58:44;96726.91;;;5.98;83.02
54389;BME280;40975;50.390;8.640;2024-02-23T01:01:09;96741.41;;;5.94;82.74
54389;BME280;40975;50.390;8.640;2024-02-23T01:03:34;96728.66;;;5.83;83.73
54389;BME280;40975;50.390;8.640;2024-02-23T01:06:00;96739.72;;;5.78;84.35
54389;BME280;40975;50.390;8.640;2024-02-23T01:08:25;96739.31;;;5.66;84.59
54389;BME280;40975;50.390;8.640;2024-02-23T01:10:51;96739.03;;;5.53;84.49
54389;BME280;40975;50.390;8.640;2024-02-23T01:13:16;96746.19;;;5.36;86.44
54389;BME280;40975;50.390;8.640;2024-02-23T01:15:42;96752.81;;;5.32;87.47
54389;BME280;40975;50.390;8.640;2024-02-23T01:18:07;96751.72;;;5.18;87.78
54389;BME280;40975;50.390;8.640;2024-02-23T01:20:33;96752.56;;;5.10;89.84
54389;BME280;40975;50.390;8.640;2024-02-23T01:22:58;96751.75;;;5.01;91.67
54389;BME280;40975;50.390;8.640;2024-02-23T01:25:24;96765.75;;;4.93;93.01
54389;BME280;40975;50.390;8.640;2024-02-23T01:27:49;96764.63;;;4.88;92.64
54389;BME280;40975;50.390;8.640;2024-02-23T01:30:14;96779.25;;;4.82;93.12
54389;BME280;40975;50.390;8.640;2024-02-23T01:32:40;96774.50;;;4.77;93.38
54389;BME280;40975;50.390;8.640;2024-02-23T01:35:06;96775.81;;;4.73;92.92
54389;BME280;40975;50.390;8.640;2024-02-23T01:37:31;96770.72;;;4.72;93.64
54389;BME280;40975;50.390;8.640;2024-02-23T01:39:57;96779.94;;;4.67;94.02
54389;BME280;40975;50.390;8.640;2024-02-23T01:42:23;96781.25;;;4.63;94.05
54389;BME280;40975;50.390;8.640;2024-02-23T01:44:49;96779.63;;;4.62;93.54
54389;BME280;40975;50.390;8.640;2024-02-23T01:47:15;96785.00;;;4.61;94.27
54389;BME280;40975;50.390;8.640;2024-02-23T01:49:40;96785.50;;;4.56;94.29
54389;BME280;40975;50.390;8.640;2024-02-23T01:52:06;96785.69;;;4.55;94.90
54389;BME280;40975;50.390;8.640;2024-02-23T01:54:32;96799.16;;;4.51;94.62
54389;BME280;40975;50.390;8.640;2024-02-23T01:56:58;96811.78;;;4.48;95.04
54389;BME280;40975;50.390;8.640;2024-02-23T01:59:24;96802.75;;;4.50;95.05
54389;BME280;40975;50.390;8.640;2024-02-23T02:01:50;96809.66;;;4.43;95.91
54389;BME280;40975;50.390;8.640;2024-02-23T02:04:15;96812.28;;;4.43;94.45
54389;BME280;40975;50.390;8.640;2024-02-23T02:06:41;96824.94;;;4.40;94.78
54389;BME280;40975;50.390;8.640;2024-02-23T02:09:07;96824.44;;;4.36;95.07
54389;BME280;40975;50.390;8.640;2024-02-23T02:11:32;96844.78;;;4.34;95.25
54389;BME280;40975;50.390;8.640;2024-02-23T02:13:58;96843.50;;;4.38;95.00
54389;BME280;40975;50.390;8.640;2024-02-23T02:16:23;96847.25;;;4.35;94.86
54389;BME280;40975;50.390;8.640;2024-02-23T02:18:48;96835.94;;;4.35;94.35
54389;BME280;40975;50.390;8.640;2024-02-23T02:21:14;96842.47;;;4.31;94.27
54389;BME280;40975;50.390;8.640;2024-02-23T02:23:39;96840.34;;;4.26;93.60
54389;BME280;40975;50.390;8.640;2024-02-23T02:26:05;96837.22;;;4.23;94.54
54389;BME280;40975;50.390;8.640;2024-02-23T02:28:30;96846.91;;;4.22;94.86
54389;BME280;40975;50.390;8.640;2024-02-23T02:30:56;96851.16;;;4.15;94.90
54389;BME280;40975;50.390;8.640;2024-02-23T02:33:22;96853.44;;;4.10;94.20
54389;BME280;40975;50.390;8.640;2024-02-23T02:35:48;96857.06;;;4.09;94.24
54389;BME280;40975;50.390;8.640;2024-02-23T02:38:14;96854.59;;;3.99;94.84
54389;BME280;40975;50.390;8.640;2024-02-23T02:40:40;96862.47;;;3.99;94.68
54389;BME280;40975;50.390;8.640;2024-02-23T02:43:05;96863.75;;;3.95;94.78
54389;BME280;40975;50.390;8.640;2024-02-23T02:45:31;96860.78;;;3.89;94.58
54389;BME280;40975;50.390;8.640;2024-02-23T02:47:57;96865.56;;;3.94;93.62
54389;BME280;40975;50.390;8.640;2024-02-23T02:50:22;96859.00;;;3.90;93.91
54389;BME280;40975;50.390;8.640;2024-02-23T02:52:47;96873.59;;;3.93;93.94
54389;BME280;40975;50.390;8.640;2024-02-23T02:55:13;96876.03;;;3.86;94.87
54389;BME280;40975;50.390;8.640;2024-02-23T02:57:38;96881.91;;;3.80;95.33
54389;BME280;40975;50.390;8.640;2024-02-23T03:00:04;96886.50;;;3.78;95.54
54389;BME280;40975;50.390;8.640;2024-02-23T03:02:31;96889.78;;;3.80;95.23
54389;BME280;40975;50.390;8.640;2024-02-23T03:04:57;96883.84;;;3.69;96.57
54389;BME280;40975;50.390;8.640;2024-02-23T03:07:22;96890.75;;;3.70;96.90
54389;BME280;40975;50.390;8.640;2024-02-23T03:09:47;96885.50;;;3.70;95.48
54389;BME280;40975;50.390;8.640;2024-02-23T03:12:14;96895.50;;;3.75;94.91
54389;BME280;40975;50.390;8.640;2024-02-23T03:14:39;96890.94;;;3.77;94.25
54389;BME280;40975;50.390;8.640;2024-02-23T03:17:06;96881.91;;;3.80;92.47
54389;BME280;40975;50.390;8.640;2024-02-23T03:19:32;96891.91;;;3.76;92.92
54389;BME280;40975;50.390;8.640;2024-02-23T03:21:57;96889.63;;;3.81;92.24
54389;BME280;40975;50.390;8.640;2024-02-23T03:24:23;96887.84;;;3.82;91.03
54389;BME280;40975;50.390;8.640;2024-02-23T03:26:48;96892.75;;;3.85;90.75
54389;BME280;40975;50.390;8.640;2024-02-23T03:29:13;96890.94;;;3.77;91.24
54389;BME280;40975;50.390;8.640;2024-02-23T03:31:39;96896.66;;;3.72;91.80
54389;BME280;40975;50.390;8.640;2024-02-23T03:34:04;96893.84;;;3.66;92.16
54389;BME280;40975;50.390;8.640;2024-02-23T03:36:29;96900.22;;;3.63;92.27
54389;BME280;40975;50.390;8.640;2024-02-23T03:38:55;96901.19;;;3.62;91.75
54389;BME280;40975;50.390;8.640;2024-02-23T03:41:20;96899.84;;;3.58;92.69
54389;BME280;40975;50.390;8.640;2024-02-23T03:43:45;96900.16;;;3.55;93.54
54389;BME280;40975;50.390;8.640;2024-02-23T03:46:11;96886.06;;;3.56;93.12
54389;BME280;40975;50.390;8.640;2024-02-23T03:48:37;96898.84;;;3.51;93.23
54389;BME280;40975;50.390;8.640;2024-02-23T03:51:04;96881.78;;;3.47;94.56
54389;BME280;40975;50.390;8.640;2024-02-23T03:53:30;96885.03;;;3.40;94.78
54389;BME280;40975;50.390;8.640;2024-02-23T03:55:56;96884.84;;;3.42;93.95
54389;BME280;40975;50.390;8.640;2024-02-23T03:58:22;96884.53;;;3.37;94.33
54389;BME280;40975;50.390;8.640;2024-02-23T04:00:47;96877.31;;;3.39;93.79
54389;BME280;40975;50.390;8.640;2024-02-23T04:03:12;96877.84;;;3.42;93.69
54389;BME280;40975;50.390;8.640;2024-02-23T04:05:37;96883.72;;;3.45;92.46
54389;BME280;40975;50.390;8.640;2024-02-23T04:08:03;96891.59;;;3.45;92.54
54389;BME280;40975;50.390;8.640;2024-02-23T04:10:29;96887.19;;;3.45;92.63
54389;BME280;40975;50.390;8.640;2024-02-23T04:12:54;96890.78;;;3.44;92.49
54389;BME280;40975;50.390;8.640;2024-02-23T04:15:19;96898.81;;;3.42;93.19
54389;BME280;40975;50.390;8.640;2024-02-23T04:17:46;96912.38;;;3.38;93.41
54389;BME280;40975;50.390;8.640;2024-02-23T04:20:11;96907.28;;;3.36;93.55
54389;BME280;40975;50.390;8.640;2024-02-23T04:22:37;96909.59;;;3.39;93.48
54389;BME280;40975;50.390;8.640;2024-02-23T04:25:03;96914.53;;;3.42;93.15
54389;BME280;40975;50.390;8.640;2024-02-23T04:27:30;96909.31;;;3.42;93.13
54389;BME280;40975;50.390;8.640;2024-02-23T04:29:55;96919.13;;;3.40;93.16
54389;BME280;40975;50.390;8.640;2024-02-23T04:32:22;96921.75;;;3.40;93.35
54389;BME280;40975;50.390;8.640;2024-02-23T04:34:48;96926.16;;;3.40;92.95
54389;BME280;40975;50.390;8.640;2024-02-23T04:37:13;96925.34;;;3.39;92.67
54389;BME280;40975;50.390;8.640;2024-02-23T04:39:39;96924.00;;;3.35;93.03
54389;BME280;40975;50.390;8.640;2024-02-23T04:42:07;96926.25;;;3.30;92.88
54389;BME280;40975;50.390;8.640;2024-02-23T04:44:34;96925.13;;;3.33;93.03
54389;BME280;40975;50.390;8.640;2024-02-23T04:46:59;96925.88;;;3.25;94.53
54389;BME280;40975;50.390;8.640;2024-02-23T04:49:24;96925.38;;;3.21;93.88
54389;BME280;40975;50.390;8.640;2024-02-23T04:51:50;96925.53;;;3.20;94.32
54389;BME280;40975;50.390;8.640;2024-02-23T04:54:15;96928.84;;;3.22;93.61
54389;BME280;40975;50.390;8.640;2024-02-23T04:56:40;96934.38;;;3.19;93.97
54389;BME280;40975;50.390;8.640;2024-02-23T04:59:06;96935.06;;;3.21;94.33
54389;BME280;40975;50.390;8.640;2024-02-23T05:01:36;96944.56;;;3.22;94.42
54389;BME280;40975;50.390;8.640;2024-02-23T05:04:02;96941.78;;;3.23;94.09
54389;BME280;40975;50.390;8.640;2024-02-23T05:06:28;96951.50;;;3.31;94.08
54389;BME280;40975;50.390;8.640;2024-02-23T05:08:54;96948.13;;;3.39;94.00
54389;BME280;40975;50.390;8.640;2024-02-23T05:11:19;96944.03;;;3.45;93.41
54389;BME280;40975;50.390;8.640;2024-02-23T05:13:44;96955.09;;;3.56;92.41
54389;BME280;40975;50.390;8.640;2024-02-23T05:16:10;96952.78;;;3.53;93.58
54389;BME280;40975;50.390;8.640;2024-02-23T05:18:35;96961.38;;;3.64;94.19
54389;BME280;40975;50.390;8.640;2024-02-23T05:21:00;96955.31;;;3.63;93.63
54389;BME280;40975;50.390;8.640;2024-02-23T05:23:26;96963.53;;;3.68;93.01
54389;BME280;40975;50.390;8.640;2024-02-23T05:25:51;96954.16;;;3.66;93.32
54389;BME280;40975;50.390;8.640;2024-02-23T05:28:16;96962.72;;;3.68;93.08
54389;BME280;40975;50.390;8.640;2024-02-23T05:30:42;96971.19;;;3.62;94.08
54389;BME280;40975;50.390;8.640;2024-02-23T05:33:07;96955.63;;;3.60;93.72
54389;BME280;40975;50.390;8.640;2024-02-23T05:35:33;96961.53;;;3.62;93.81
54389;BME280;40975;50.390;8.640;2024-02-23T05:37:58;96958.41;;;3.58;94.42
54389;BME280;40975;50.390;8.640;2024-02-23T05:40:24;96967.19;;;3.49;95.48
54389;BME280;40975;50.390;8.640;2024-02-23T05:42:49;96968.47;;;3.45;94.99
54389;BME280;40975;50.390;8.640;2024-02-23T05:45:14;96954.53;;;3.45;94.16
54389;BME280;40975;50.390;8.640;2024-02-23T05:47:40;96956.50;;;3.42;93.70
54389;BME280;40975;50.390;8.640;2024-02-23T05:50:07;96960.69;;;3.35;94.67
54389;BME280;40975;50.390;8.640;2024-02-23T05:52:34;96969.41;;;3.36;94.27
54389;BME280;40975;50.390;8.640;2024-02-23T05:55:00;96970.53;;;3.33;95.37
54389;BME280;40975;50.390;8.640;2024-02-23T05:57:26;96964.47;;;3.33;95.61
54389;BME280;40975;50.390;8.640;2024-02-23T05:59:52;96978.41;;;3.33;94.99
54389;BME280;40975;50.390;8.640;2024-02-23T06:02:17;96980.69;;;3.36;95.71
54389;BME280;40975;50.390;8.640;2024-02-23T06:04:43;96985.94;;;3.36;95.80
54389;BME280;40975;50.390;8.640;2024-02-23T06:07:08;96992.84;;;3.37;96.45
54389;BME280;40975;50.390;8.640;2024-02-23T06:09:34;96990.84;;;3.31;97.61
54389;BME280;40975;50.390;8.640;2024-02-23T06:11:59;97003.28;;;3.29;98.90
54389;BME280;40975;50.390;8.640;2024-02-23T06:14:25;97001.78;;;3.26;100.00
54389;BME280;40975;50.390;8.640;2024-02-23T06:16:50;97010.91;;;3.22;100.00
54389;BME280;40975;50.390;8.640;2024-02-23T06:19:15;97008.06;;;3.16;100.00
54389;BME280;40975;50.390;8.640;2024-02-23T06:21:41;97013.31;;;3.16;100.00
54389;BME280;40975;50.390;8.640;2024-02-23T06:24:06;97012.13;;;3.10;100.00
54389;BME280;40975;50.390;8.640;2024-02-23T06:26:34;97017.53;;;3.08;100.00
54389;BME280;40975;50.390;8.640;2024-02-23T06:28:59;97019.47;;;3.06;100.00
54389;BME280;40975;50.390;8.640;2024-02-23T06:31:25;97020.75;;;3.02;100.00
54389;BME280;40975;50.390;8.640;2024-02-23T06:33:50;97019.56;;;2.97;100.00
54389;BME280;40975;50.390;8.640;2024-02-23T06:36:17;97039.84;;;2.94;100.00
54389;BME280;40975;50.390;8.640;2024-02-23T06:38:44;97043.44;;;2.93;100.00
54389;BME280;40975;50.390;8.640;2024-02-23T06:41:10;97045.53;;;2.90;100.00
54389;BME280;40975;50.390;8.640;2024-02-23T06:43:36;97054.06;;;2.92;100.00
54389;BME280;40975;50.390;8.640;2024-02-23T06:46:06;97055.03;;;2.91;100.00
54389;BME280;40975;50.390;8.640;2024-02-23T06:48:32;97066.34;;;2.91;100.00
54389;BME280;40975;50.390;8.640;2024-02-23T06:50:58;97061.94;;;2.92;100.00
54389;BME280;40975;50.390;8.640;2024-02-23T06:53:23;97060.34;;;2.99;100.00
54389;BME280;40975;50.390;8.640;2024-02-23T06:55:48;97064.34;;;3.03;100.00
54389;BME280;40975;50.390;8.640;2024-02-23T06:58:13;97073.25;;;3.10;100.00
54389;BME280;40975;50.390;8.640;2024-02-23T07:00:40;97071.44;;;3.11;100.00
54389;BME280;40975;50.390;8.640;2024-02-23T07:03:05;97082.16;;;3.18;100.00
54389;BME280;40975;50.390;8.640;2024-02-23T07:05:31;97081.69;;;3.22;100.00
54389;BME280;40975;50.390;8.640;2024-02-23T07:07:57;97080.72;;;3.23;100.00
54389;BME280;40975;50.390;8.640;2024-02-23T07:10:22;97083.88;;;3.27;100.00
54389;BME280;40975;50.390;8.640;2024-02-23T07:12:50;97084.94;;;3.34;100.00
54389;BME280;40975;50.390;8.640;2024-02-23T07:15:18;97080.06;;;3.39;100.00
54389;BME280;40975;50.390;8.640;2024-02-23T07:17:44;97085.66;;;3.45;100.00
54389;BME280;40975;50.390;8.640;2024-02-23T07:20:10;97085.22;;;3.49;100.00
54389;BME280;40975;50.390;8.640;2024-02-23T07:22:36;97081.81;;;3.57;100.00
54389;BME280;40975;50.390;8.640;2024-02-23T07:25:01;97086.78;;;3.60;100.00
54389;BME280;40975;50.390;8.640;2024-02-23T07:27:29;97082.72;;;3.66;100.00
54389;BME280;40975;50.390;8.640;2024-02-23T07:29:55;97088.63;;;3.68;100.00
54389;BME280;40975;50.390;8.640;2024-02-23T07:32:20;97087.81;;;3.67;100.00
54389;BME280;40975;50.390;8.640;2024-02-23T07:34:46;97092.38;;;3.65;100.00
54389;BME280;40975;50.390;8.640;2024-02-23T07:37:11;97105.34;;;3.67;100.00
54389;BME280;40975;50.390;8.640;2024-02-23T07:39:36;97098.50;;;3.74;100.00
54389;BME280;40975;50.390;8.640;2024-02-23T07:42:02;97096.69;;;3.74;100.00
54389;BME280;40975;50.390;8.640;2024-02-23T07:44:28;97089.09;;;3.89;100.00
54389;BME280;40975;50.390;8.640;2024-02-23T07:46:53;97081.47;;;4.04;100.00
54389;BME280;40975;50.390;8.640;2024-02-23T07:49:20;97088.56;;;4.39;100.00
54389;BME280;40975;50.390;8.640;2024-02-23T07:51:47;97079.50;;;4.76;100.00
54389;BME280;40975;50.390;8.640;2024-02-23T07:54:12;97076.97;;;5.25;97.62
54389;BME280;40975;50.390;8.640;2024-02-23T07:56:38;97084.53;;;5.86;93.73
54389;BME280;40975;50.390;8.640;2024-02-23T07:59:03;97086.47;;;6.65;86.90
54389;BME280;40975;50.390;8.640;2024-02-23T08:01:28;97091.56;;;7.53;82.56
54389;BME280;40975;50.390;8.640;2024-02-23T08:03:54;97079.72;;;7.87;78.94
54389;BME280;40975;50.390;8.640;2024-02-23T08:06:19;97074.75;;;7.69;77.89
54389;BME280;40975;50.390;8.640;2024-02-23T08:08:45;97080.38;;;8.04;77.04
54389;BME280;40975;50.390;8.640;2024-02-23T08:11:12;97082.97;;;7.74;77.46
54389;BME280;40975;50.390;8.640;2024-02-23T08:13:38;97078.25;;;7.23;78.62
54389;BME280;40975;50.390;8.640;2024-02-23T08:16:04;97088.88;;;7.38;78.69
54389;BME280;40975;50.390;8.640;2024-02-23T08:18:29;97080.88;;;7.46;78.19
54389;BME280;40975;50.390;8.640;2024-02-23T08:20:54;97086.25;;;6.35;81.46
54389;BME280;40975;50.390;8.640;2024-02-23T08:23:20;97096.34;;;5.99;84.51
54389;BME280;40975;50.390;8.640;2024-02-23T08:25:45;97096.72;;;5.63;87.34
54389;BME280;40975;50.390;8.640;2024-02-23T08:28:10;97098.34;;;5.39;89.32
54389;BME280;40975;50.390;8.640;2024-02-23T08:30:36;97098.53;;;5.45;90.06
54389;BME280;40975;50.390;8.640;2024-02-23T08:33:01;97103.13;;;5.43;90.09
54389;BME280;40975;50.390;8.640;2024-02-23T08:35:26;97105.09;;;5.50;90.42
54389;BME280;40975;50.390;8.640;2024-02-23T08:37:52;97100.16;;;5.63;89.89
54389;BME280;40975;50.390;8.640;2024-02-23T08:40:17;97100.31;;;5.78;88.64
54389;BME280;40975;50.390;8.640;2024-02-23T08:42:43;97104.41;;;6.22;87.00
54389;BME280;40975;50.390;8.640;2024-02-23T08:45:08;97109.50;;;6.32;86.45
54389;BME280;40975;50.390;8.640;2024-02-23T08:47:35;97114.97;;;6.05;86.32
54389;BME280;40975;50.390;8.640;2024-02-23T08:50:01;97120.22;;;5.72;87.94
54389;BME280;40975;50.390;8.640;2024-02-23T08:52:26;97131.09;;;5.61;89.08
54389;BME280;40975;50.390;8.640;2024-02-23T08:54:52;97138.00;;;5.45;89.34
54389;BME280;40975;50.390;8.640;2024-02-23T08:57:17;97144.22;;;5.28;91.03
54389;BME280;40975;50.390;8.640;2024-02-23T08:59:45;97135.16;;;5.14;92.00
54389;BME280;40975;50.390;8.640;2024-02-23T09:02:11;97143.69;;;5.16;92.80
54389;BME280;40975;50.390;8.640;2024-02-23T09:04:37;97142.00;;;5.07;92.75
54389;BME280;40975;50.390;8.640;2024-02-23T09:07:02;97142.88;;;5.16;93.18
54389;BME280;40975;50.390;8.640;2024-02-23T09:09:27;97139.56;;;5.13;92.49
54389;BME280;40975;50.390;8.640;2024-02-23T09:11:53;97144.66;;;5.15;92.60
54389;BME280;40975;50.390;8.640;2024-02-23T09:14:18;97126.13;;;5.25;90.37
54389;BME280;40975;50.390;8.640;2024-02-23T09:16:43;97122.53;;;5.34;89.61
54389;BME280;40975;50.390;8.640;2024-02-23T09:19:09;97127.94;;;5.33;90.53
54389;BME280;40975;50.390;8.640;2024-02-23T09:21:35;97134.19;;;5.40;90.33
54389;BME280;40975;50.390;8.640;2024-02-23T09:24:00;97135.34;;;5.29;91.24
54389;BME280;40975;50.390;8.640;2024-02-23T09:26:25;97145.88;;;5.54;91.19
54389;BME280;40975;50.390;8.640;2024-02-23T09:28:51;97141.28;;;5.64;89.80
54389;BME280;40975;50.390;8.640;2024-02-23T09:31:16;97140.97;;;5.75;88.83
54389;BME280;40975;50.390;8.640;2024-02-23T09:33:42;97135.53;;;5.77;88.08
54389;BME280;40975;50.390;8.640;2024-02-23T09:36:09;97140.31;;;5.73;87.20
54389;BME280;40975;50.390;8.640;2024-02-23T09:38:35;97137.50;;;5.58;87.34
54389;BME280;40975;50.390;8.640;2024-02-23T09:41:01;97126.00;;;5.59;87.78
54389;BME280;40975;50.390;8.640;2024-02-23T09:43:28;97125.19;;;6.00;86.30
54389;BME280;40975;50.390;8.640;2024-02-23T09:45:54;97138.59;;;6.47;83.57
54389;BME280;40975;50.390;8.640;2024-02-23T09:48:21;97106.88;;;7.96;76.16
54389;BME280;40975;50.390;8.640;2024-02-23T09:50:49;97109.75;;;7.48;75.54
54389;BME280;40975;50.390;8.640;2024-02-23T09:53:15;97105.06;;;7.97;75.10
54389;BME280;40975;50.390;8.640;2024-02-23T09:55:43;97100.16;;;9.85;69.25
54389;BME280;40975;50.390;8.640;2024-02-23T09:58:11;97096.75;;;11.65;64.93
54389;BME280;40975;50.390;8.640;2024-02-23T10:00:38;97079.34;;;13.41;56.80
54389;BME280;40975;50.390;8.640;2024-02-23T10:03:04;97087.38;;;13.66;56.34
54389;BME280;40975;50.390;8.640;2024-02-23T10:05:30;97084.81;;;15.03;52.55
54389;BME280;40975;50.390;8.640;2024-02-23T10:07:57;97078.94;;;16.10;50.24
54389;BME280;40975;50.390;8.640;2024-02-23T10:10:33;97073.72;;;16.51;48.38
54389;BME280;40975;50.390;8.640;2024-02-23T10:12:59;97080.72;;;16.28;48.10
54389;BME280;40975;50.390;8.640;2024-02-23T10:15:25;97076.16;;;16.93;47.67
54389;BME280;40975;50.390;8.640;2024-02-23T10:17:51;97075.59;;;16.38;47.80
54389;BME280;40975;50.390;8.640;2024-02-23T10:20:16;97060.91;;;16.05;48.75
54389;BME280;40975;50.390;8.640;2024-02-23T10:22:42;97077.09;;;16.99;46.59
54389;BME280;40975;50.390;8.640;2024-02-23T10:25:09;97066.63;;;16.21;47.13
54389;BME280;40975;50.390;8.640;2024-02-23T10:27:34;97071.63;;;16.29;47.68
54389;BME280;40975;50.390;8.640;2024-02-23T10:29:59;97074.28;;;16.53;46.64
54389;BME280;40975;50.390;8.640;2024-02-23T10:32:27;97146.56;;;15.44;47.96
54389;BME280;40975;50.390;8.640;2024-02-23T10:34:55;97162.13;;;16.08;47.16
54389;BME280;40975;50.390;8.640;2024-02-23T10:37:22;97157.44;;;15.31;48.83
54389;BME280;40975;50.390;8.640;2024-02-23T10:39:50;97161.00;;;15.24;48.62
54389;BME280;40975;50.390;8.640;2024-02-23T10:42:18;97172.44;;;15.93;46.66
54389;BME280;40975;50.390;8.640;2024-02-23T10:44:50;97170.56;;;16.47;47.08
54389;BME280;40975;50.390;8.640;2024-02-23T10:47:16;97171.41;;;15.94;47.62
54389;BME280;40975;50.390;8.640;2024-02-23T10:49:42;97169.38;;;15.47;48.11
54389;BME280;40975;50.390;8.640;2024-02-23T10:52:08;97172.53;;;14.62;49.41
54389;BME280;40975;50.390;8.640;2024-02-23T10:54:37;97178.69;;;14.63;49.75
54389;BME280;40975;50.390;8.640;2024-02-23T10:57:04;97169.81;;;13.61;51.42
54389;BME280;40975;50.390;8.640;2024-02-23T10:59:30;97172.75;;;14.61;51.16
54389;BME280;40975;50.390;8.640;2024-02-23T11:01:56;97164.69;;;15.73;49.62
54389;BME280;40975;50.390;8.640;2024-02-23T11:04:25;97169.75;;;15.62;48.97
54389;BME280;40975;50.390;8.640;2024-02-23T11:06:52;97150.63;;;16.31;48.04
54389;BME280;40975;50.390;8.640;2024-02-23T11:09:20;97170.00;;;15.12;48.14
54389;BME280;40975;50.390;8.640;2024-02-23T11:11:57;97167.81;;;15.69;47.68
54389;BME280;40975;50.390;8.640;2024-02-23T11:14:30;97165.91;;;16.43;47.16
54389;BME280;40975;50.390;8.640;2024-02-23T11:16:56;97151.50;;;12.74;51.45
54389;BME280;40975;50.390;8.640;2024-02-23T11:19:32;97148.03;;;11.53;55.38
54389;BME280;40975;50.390;8.640;2024-02-23T11:21:58;97141.75;;;11.12;57.42
54389;BME280;40975;50.390;8.640;2024-02-23T11:24:25;97145.78;;;10.59;59.21
54389;BME280;40975;50.390;8.640;2024-02-23T11:26:56;97133.84;;;10.13;59.64
54389;BME280;40975;50.390;8.640;2024-02-23T11:29:26;97131.41;;;10.40;60.37
54389;BME280;40975;50.390;8.640;2024-02-23T11:31:52;97131.06;;;10.56;61.06
54389;BME280;40975;50.390;8.640;2024-02-23T11:34:26;97125.25;;;10.11;60.94
54389;BME280;40975;50.390;8.640;2024-02-23T11:36:52;97139.03;;;10.00;61.89
54389;BME280;40975;50.390;8.640;2024-02-23T11:39:22;97137.88;;;11.14;59.59
54389;BME280;40975;50.390;8.640;2024-02-23T11:41:50;97145.09;;;10.85;59.41
54389;BME280;40975;50.390;8.640;2024-02-23T11:44:16;97150.41;;;10.85;60.49
54389;BME280;40975;50.390;8.640;2024-02-23T11:46:44;97150.38;;;11.20;59.80
54389;BME280;40975;50.390;8.640;2024-02-23T11:49:11;97153.41;;;10.40;60.30
54389;BME280;40975;50.390;8.640;2024-02-23T11:51:37;97143.78;;;9.24;62.47
54389;BME280;40975;50.390;8.640;2024-02-23T11:54:02;97145.00;;;9.07;64.00
54389;BME280;40975;50.390;8.640;2024-02-23T11:56:29;97161.16;;;8.37;65.37
54389;BME280;40975;50.390;8.640;2024-02-23T11:58:55;97137.94;;;8.09;68.82
54389;BME280;40975;50.390;8.640;2024-02-23T12:01:21;97137.59;;;8.12;69.69
54389;BME280;40975;50.390;8.640;2024-02-23T12:03:46;97143.84;;;7.96;71.62
54389;BME280;40975;50.390;8.640;2024-02-23T12:06:13;97143.16;;;7.79;71.93
54389;BME280;40975;50.390;8.640;2024-02-23T12:08:40;97148.22;;;7.89;72.16
54389;BME280;40975;50.390;8.640;2024-02-23T12:11:07;97140.97;;;7.68;72.66
54389;BME280;40975;50.390;8.640;2024-02-23T12:13:36;97143.81;;;7.81;73.13
54389;BME280;40975;50.390;8.640;2024-02-23T12:16:01;97135.84;;;8.04;74.02
54389;BME280;40975;50.390;8.640;2024-02-23T12:18:28;97137.88;;;8.02;73.57
54389;BME280;40975;50.390;8.640;2024-02-23T12:21:00;97138.97;;;8.08;73.61
54389;BME280;40975;50.390;8.640;2024-02-23T12:23:26;97135.34;;;8.24;71.74
54389;BME280;40975;50.390;8.640;2024-02-23T12:25:56;97130.25;;;8.37;70.94
54389;BME280;40975;50.390;8.640;2024-02-23T12:28:22;97140.47;;;8.40;71.31
54389;BME280;40975;50.390;8.640;2024-02-23T12:31:07;97139.81;;;8.38;70.47
54389;BME280;40975;50.390;8.640;2024-02-23T12:33:36;97136.34;;;8.23;70.18
54389;BME280;40975;50.390;8.640;2024-02-23T12:36:06;97142.53;;;8.15;70.30
54389;BME280;40975;50.390;8.640;2024-02-23T12:38:32;97137.38;;;8.37;70.59
54389;BME280;40975;50.390;8.640;2024-02-23T12:41:01;97135.78;;;8.66;70.67
54389;BME280;40975;50.390;8.640;2024-02-23T12:43:28;97135.56;;;8.67;68.86
54389;BME280;40975;50.390;8.640;2024-02-23T12:45:54;97138.38;;;8.96;66.51
54389;BME280;40975;50.390;8.640;2024-02-23T12:48:20;97133.97;;;9.18;67.08
54389;BME280;40975;50.390;8.640;2024-02-23T12:50:46;97130.56;;;8.88;64.52
54389;BME280;40975;50.390;8.640;2024-02-23T12:53:34;97127.13;;;9.09;65.44
54389;BME280;40975;50.390;8.640;2024-02-23T12:56:08;97129.25;;;8.98;64.29
54389;BME280;40975;50.390;8.640;2024-02-23T12:58:38;97121.88;;;8.79;63.63
54389;BME280;40975;50.390;8.640;2024-02-23T13:01:04;97132.28;;;8.65;64.46